< < Back
Terminal Aerodrome Forecast


Current Version              Previous Versions:   1  2  3  4  5  6  7  8  9  

Terminal Aerodrome Forecast

238
FTUS42 KCHS 011731
TAFCHS
TAF
KCHS 011731Z 0118/0218 19008KT P6SM VCTS SCT035CB BKN120
     FM012300 21006KT P6SM FEW035 SCT200=

Latest METAR

523
SAUS80 KWBC 011800 RRQ
MTRCHS
METAR KCHS 011756Z 21008KT 10SM SCT035 BKN045 31/23 A3000 RMK AO2 SLP157
MDT CU NE-SE T03110228 10322 20261 58013


USA.gov is the U.S. government's official web portal to all federal, state and local government web resources and services.